Moosonee Airport
CYMO : now visible

Aeroporto :











RITROVATECI SU...

 
LOGIN :

Iscrizione | Disclaimer

   EN    FR    IT 

 









Sommario :    VFR   VFR Marginale   IFR   IFR Intensivo   IFR Molto Intensivo
Visibilità : 
Base nubi : 
>= 8 km
>= 3000ft
5 / 8 km
1000 / 3000 ft
1500m / 5 km
500 / 1000 ft
800 / 1500m
200 / 500 ft
< 800m
< 200 ft
Simboli :   Temporali  Nebbia  Neve Forte  Precipitazioni Forti  Vento > 20 kt






- Altitudine del aeroporto : 30 ft
- Codice IATA : YMO


CYMO - Moosonee

ULTIMO METAR :
  • 280632Z AUTO 35017G24KT 2 1/4SM -SN OVC018 M12/M15 A2953 RMK VIS VRB 1 1/2-3 SLP001

METARs OBSOLETI :
  • 280600Z AUTO 35016G23KT 1 1/4SM -SN OVC010 M12/M14 A2953 RMK SLP002
  • 280500Z AUTO 35013G21KT 1 1/4SM -SN OVC014 M12/M14 A2954 RMK SLP006
  • 280423Z AUTO 35015G24KT 2SM -SN OVC020 M12/M14 A2953 RMK SLP003
  • 280409Z AUTO 35017G24KT 2 1/4SM -SN OVC020 M12/M14 A2954 RMK SLP005

TAF TAF CYMO
Valido dal 28 a 06 ore il 28 a 18 ore UTC


280538Z 2806/2818 34015G25KT 3/4SM -SN BLSN OVC012
TEMPO 2806/2811 2SM -SN OVC025
FM281100 33015G25KT 3SM -SN OVC025
TEMPO 2811/2818 1SM -SN OVC015
BECMG 2816/2818 32012G22KT RMK FCST BASED ON AUTO OBS. NXT FCST BY 281200Z



MetMap, La meteo Aeronautica in un colpo d'occhio ! - Copyright ORBIFLY Dicembre 2007 - Disclaimer

ORBIFLY MET'MAP TEAM :

Programmazione e sviluppo : Alexandra Zaïnal
Concezione : Baudouin d'Aumeries
Aiuto per la programmazione : Marc-Olivier Méhu
Supporto tecnico e logistico : Manuel Goepfert
Aiuto per la traduzione : Arnaldo La Scala

Contatto : metmap@orbifly.com




FONTI E CREDITI :

   NOAA       Earth
Advisory